Terminal Aerodrome Forecast
Issued by NWS

Home | Current Version | Previous Version | Text Only | Print | Product List | Glossary Off
Versions: 1 2 3 4 5 6 7 8 9 10 11 12 13 14 15 16 17

000
FTUS43 KTOP 251000 AAB
TAFFOE
TAF AMD
KFOE 251019Z 2510/2606 30022G32KT P6SM VCSH SCT035 BKN050
     FM251200 34024G34KT P6SM BKN025
     FM252200 34011KT P6SM SCT025=

USA.gov is the U.S. government's official web portal to all federal, state and local government web resources and services.